Station info - map view · info · telemetry · weather · raw · status · beacons · messages · bulletins · browse · moving · my account
Callsign, ship name or locator: Clear       
It is possible to search using wildcards (*?) after a prefix. Example: OH*
APRS station DG6SAB - show graphs
Map loading...
Comment: QRV 145.500 Mhz
Mic-E message: Custom 1
Location: 48°39.48' N 9°11.41' E - locator JN48OP27TW - show map - static map
1.4 miles West bearing 273° from Filderstadt, Regierungsbezirk Stuttgart, Baden-Württemberg, Germany [?]
4.3 miles West bearing 277° from Wolfschlugen, Regierungsbezirk Stuttgart, Baden-Württemberg, Germany
8.6 miles South bearing 176° from Stuttgart, Regierungsbezirk Stuttgart, Baden-Württemberg, Germany
66.1 miles Southeast bearing 150° from Mannheim, Baden-Württemberg, Germany
Last position: 2017-01-09 05:35:59 EST (10d 4h42m ago)
2017-01-09 11:35:59 CET local time at Filderstadt, Germany [?]
Altitude: 1427 ft
Course: 287°
Speed: 7 MPH
Device: Yaesu: VX-8 (ht)
Last path: DG6SAB>EI3YT8 via WIDE1-1,qAR,DG2SDK-10 (good)
Positions stored: 10799
Stations near current position of DG6SAB - show more
callsign distance last heard - EST      callsign distance last heard - EST
DF2JH-4518.3 yards 132°2016-12-31 10:24:16 EDDS2.2 miles 12°2017-01-18 08:07:40
FLUGHAFEN2.2 miles 12°2017-01-19 10:05:58 DG7EKJ-92.6 miles 356°2017-01-12 12:33:29
DB2TN-93.3 miles 142°2017-01-14 06:48:51 DG5SEK3.4 miles 317°2016-12-24 16:14:05
DF2JH-73.8 miles 43°2017-01-07 08:48:41 DB0TST4.2 miles 310°2017-01-14 07:39:27
DL6SH-94.5 miles 347°2017-01-19 07:43:29 DG3SDK-94.8 miles 20°2017-01-07 06:20:23
DG1SNK5.3 miles 40°2017-01-08 10:27:28 DG2SDK-105.4 miles 43°2017-01-19 09:55:45
DG2SDK-75.6 miles 48°2017-01-19 10:18:37 DG2SDK-86.3 miles 52°2017-01-19 07:44:36
EL-DG2SDK6.4 miles 43°2017-01-19 10:10:51 DF7UQ-96.4 miles 152°2017-01-14 14:43:27
DG2SDK-96.4 miles 52°2017-01-19 08:51:22 DB0OFI-B6.4 miles 57°2017-01-19 10:11:23
DO3CL-56.4 miles 106°2017-01-04 08:44:55 DB0OFI6.5 miles 56°2017-01-19 10:17:52
Stations which heard DG6SAB directly on radio –
callsign pkts first heard - EST last heard longest (tx => rx) longest at - EST
OE1XQR 1 2017-01-06 07:51:58 2017-01-06 07:51:58 JN88FD > JN88EE 5.0 miles 286° 2017-01-06 07:51:58
OE5XOR 15 2017-01-06 09:04:54 2017-01-06 10:53:25 JN78KD > JN78DJ 32.2 miles 307° 2017-01-06 09:04:54
OE6XTR 1 2017-01-06 07:07:38 2017-01-06 07:07:38 JN87PT > JN77VN 71.2 miles 256° 2017-01-06 07:07:38
DB0ZUS 4 2017-01-06 13:24:10 2017-01-06 13:28:54 JN58IK > JN58HJ 3.8 miles 249° 2017-01-06 13:24:10
HG5PBD-2 18 2017-01-06 04:12:56 2017-01-06 05:48:34 JN97PO > JN97LN 12.3 miles 255° 2017-01-06 04:12:56
DJ5SO-1 2 2017-01-06 13:46:03 2017-01-06 13:50:06 JN48WL > JN48XK 4.0 miles 145° 2017-01-06 13:50:06
HG1PNY-1 10 2017-01-06 06:44:24 2017-01-06 06:56:47 JN87SQ > JN87TN 10.6 miles 138° 2017-01-06 06:56:47
OE5ERN-10 3 2017-01-06 10:24:35 2017-01-06 10:30:45 JN78FE > JN78DH 11.2 miles 319° 2017-01-06 10:24:35
DH9RCG 1 2017-01-06 11:17:35 2017-01-06 11:17:35 JN68QJ > JN68SO 14.1 miles 17° 2017-01-06 11:17:35
OE1SSU-10 1 2017-01-06 08:05:02 2017-01-06 08:05:02 JN88DC > JN88DD 1.9 miles 21° 2017-01-06 08:05:02
OE3XXR 7 2017-01-06 10:09:42 2017-01-06 10:29:44 JN78EF > JN78GD 10.2 miles 123° 2017-01-06 10:29:44
DM0AI-10 1 2017-01-09 02:19:51 2017-01-09 02:19:51 JN48OR > JN48KQ 15.0 miles 255° 2017-01-09 02:19:51
DL8RDL-10 4 2017-01-06 12:19:16 2017-01-06 12:24:28 JN68CO > JN68BM 5.1 miles 211° 2017-01-06 12:19:16
OE5XIM-10 6 2017-01-06 10:10:43 2017-01-06 10:39:29 JN78IC > JN78DN 37.3 miles 325° 2017-01-06 10:11:44
DH2RL-2 1 2017-01-06 12:13:55 2017-01-06 12:13:55 JN68DP > JN68CQ 6.6 miles 313° 2017-01-06 12:13:55
OE5XGL-10 5 2017-01-06 10:17:24 2017-01-06 10:56:30 JN78HC > JN67VV 39.8 miles 247° 2017-01-06 10:17:24
OE1SSU-12 5 2017-01-06 07:52:28 2017-01-06 08:06:35 JN88FD > JN88DD 9.2 miles 268° 2017-01-06 07:52:28
DO7HS-10 3 2017-01-06 12:15:31 2017-01-06 12:17:12 JN68DO > JN68DO 1.1 miles 223° 2017-01-06 12:15:31
OE1IWA-10 3 2017-01-06 08:00:16 2017-01-06 08:01:48 JN88DC > JN88ED 1.5 miles 36° 2017-01-06 08:01:48
OE3XIA-10 5 2017-01-06 07:50:49 2017-01-06 07:58:45 JN88FC > JN88CF 13.6 miles 308° 2017-01-06 07:54:00
OE3MZC-2 2 2017-01-06 08:25:44 2017-01-06 08:27:48 JN78WE > JN78XE 4.2 miles 63° 2017-01-06 08:27:48
OE3XDA-10 11 2017-01-06 08:51:02 2017-01-06 10:10:12 JN78OE > JN78LA 16.0 miles 227° 2017-01-06 08:51:02
OE5XBL-10 1 2017-01-06 11:26:49 2017-01-06 11:26:49 JN68QM > JN68PC 29.2 miles 188° 2017-01-06 11:26:49
DB0SAA-10 1 2017-01-06 13:59:32 2017-01-06 13:59:32 JN48VM > JN58BT 24.1 miles 38° 2017-01-06 13:59:32
OE3REC-11 6 2017-01-06 07:41:01 2017-01-06 08:05:33 JN88DC > JN88HE 16.9 miles 76° 2017-01-06 08:05:33
DB0ISA-10 2 2017-01-06 14:29:05 2017-01-09 02:11:04 JN48OQ > JN48RN 14.0 miles 125° 2017-01-09 02:11:04
HA5OB-11 7 2017-01-06 04:27:21 2017-01-06 05:49:34 JN97NN > JN97NL 7.6 miles 175° 2017-01-06 05:26:26
HG9PTA 11 2017-01-03 04:05:28 2017-01-03 04:52:43 KN07JW > KN08QC 29.5 miles 64° 2017-01-03 04:05:28
HG7PDK-2 26 2017-01-06 04:08:13 2017-01-06 05:58:59 JN97QO > JN97KR 23.0 miles 288° 2017-01-06 04:08:13
HG5PGE-2 14 2017-01-06 06:17:02 2017-01-06 06:41:52 JN87WQ > JN97FQ 28.3 miles 91° 2017-01-06 06:41:52
OE3VBA-10 5 2017-01-06 08:39:43 2017-01-06 08:58:44 JN78MD > JN78RG 23.2 miles 66° 2017-01-06 08:58:44
DG2SDK-10 35 2017-01-06 14:31:45 2017-01-09 05:35:28 JN48RP > JN48PR 11.6 miles 301° 2017-01-06 14:31:45
DB0FFL-10 1 2017-01-06 12:12:50 2017-01-06 12:12:50 JN68EP > JN68EO 3.2 miles 179° 2017-01-06 12:12:50
OE3BUB-10 1 2017-01-06 08:06:04 2017-01-06 08:06:04 JN88DC > JN88FG 15.5 miles 35° 2017-01-06 08:06:04
OE3PDB-12 1 2017-01-06 08:22:06 2017-01-06 08:22:06 JN78XD > JN88BG 9.0 miles 37° 2017-01-06 08:22:06
OE3PDB-3 1 2017-01-06 07:51:57 2017-01-06 07:51:57 JN88FD > JN88BG 19.4 miles 292° 2017-01-06 07:51:57
OE3XFW-10 8 2017-01-06 08:17:59 2017-01-06 08:28:50 JN78VE > JN78XD 8.2 miles 109° 2017-01-06 08:28:50
HG5CJW-12 7 2017-01-06 05:47:28 2017-01-06 05:55:23 JN97ML > JN97ML 2.4 miles 357° 2017-01-06 05:55:23
DM0FFL-10 5 2017-01-06 12:18:14 2017-01-06 12:25:29 JN68CO > JN68BN 5.3 miles 250° 2017-01-06 12:18:14
OE5XUL-10 3 2017-01-06 11:01:07 2017-01-06 11:04:12 JN68SF > JN68SE 3.1 miles 156° 2017-01-06 11:04:12
OE3XLR 5 2017-01-06 08:33:27 2017-01-06 08:43:19 JN78QE > JN77TX 17.7 miles 148° 2017-01-06 08:43:19
DG4MLA-10 3 2017-01-06 12:49:39 2017-01-06 12:52:13 JN58SF > JN58TG 3.7 miles 47° 2017-01-06 12:52:13
DL6FCD 6 2017-01-06 13:09:39 2017-01-06 13:18:54 JN58KK > JN58LI 7.5 miles 120° 2017-01-06 13:18:54
DL1GER-10 5 2017-01-06 13:33:33 2017-01-06 13:43:22 JN58EK > JN58CM 10.5 miles 320° 2017-01-06 13:33:33
OE5XHR-10 2 2017-01-06 11:01:38 2017-01-06 11:21:40 JN68TF > JN68XR 38.0 miles 23° 2017-01-06 11:01:38
DB0XHI-10 3 2017-01-07 11:35:41 2017-01-09 05:20:19 JN48OR > JN48OM 14.8 miles 170° 2017-01-09 02:20:22
DL2MEL-10 1 2017-01-06 12:51:11 2017-01-06 12:51:11 JN58SF > JN58QE 7.6 miles 254° 2017-01-06 12:51:11
DB0PAS-10 6 2017-01-06 11:27:50 2017-01-06 11:36:40 JN68PP > JN68SO 14.2 miles 112° 2017-01-06 11:36:40
DB0DLG-10 2 2017-01-06 13:30:56 2017-01-06 13:32:31 JN58FJ > JN58FM 7.3 miles 342° 2017-01-06 13:30:56
DC3CD-3 1 2017-01-06 13:18:24 2017-01-06 13:18:24 JN58KJ > JN58KK 0.8 miles 52° 2017-01-06 13:18:24
OE5WWO 1 2017-01-06 10:31:16 2017-01-06 10:31:16 JN78DF > JN78DH 4.6 miles 355° 2017-01-06 10:31:16
DL6RBG-11 9 2017-01-06 11:10:54 2017-01-06 11:38:48 JN68RH > JN68QM 15.6 miles 348° 2017-01-06 11:10:54
HG9PKK-2 41 2017-01-03 03:37:29 2017-01-06 03:42:46 KN07AQ > KN08FB 31.6 miles 38° 2017-01-06 03:42:46
DB0PAS-1 3 2017-01-06 11:21:09 2017-01-06 11:29:54 JN68QK > JN68SO 12.6 miles 41° 2017-01-06 11:21:09
DB0RDH-10 5 2017-01-06 11:50:05 2017-01-06 11:58:49 JN68IR > JN68KW 15.2 miles 20° 2017-01-06 11:58:49
OE5XLM-10 9 2017-01-06 09:05:25 2017-01-06 10:40:00 JN78JD > JN78CH 29.3 miles 294° 2017-01-06 09:05:25
HG6PGA-10 38 2017-01-03 03:44:32 2017-01-06 04:11:49 JN97PO > JN97XV 36.5 miles 53° 2017-01-06 04:11:49
OE3XMC-10 1 2017-01-06 07:56:01 2017-01-06 07:56:01 JN88FC > JN88FD 2.0 miles 59° 2017-01-06 07:56:01
DB0OFI 21 2017-01-06 14:34:50 2017-01-09 05:33:56 JN48NR > JN48PR 6.7 miles 107° 2017-01-09 02:22:25

Only position packets which were originated by the station are shown here. The range statistics show some extra long hops, because some digipeaters do not correctly add themselves to the digipeater path. Please check the raw packets.
About this site
This page shows real-time information collected from the Automatic Position Reporting System Internet network (APRS-IS). APRS is used by amateur (ham) radio operators to transmit real-time position information, weather data, telemetry and messages over the radio. A vehicle equipped with a GPS receiver, a VHF transmitter or HF transceiver and a small computer device called a tracker transmits it's location, speed and course in a small data packet, which is then received by a nearby iGate receiving site which forwards the packet on the Internet. Systems connected to the Internet can send information on the APRS-IS without a radio transmitter, or collect and display information transmitted anywhere in the world.
FAQ · Blog · Discussion group · Linking to aprs.fi · AIS sites · Service status · Database statistics · Advertising on aprs.fi · Technical details · API · Change log · Planned changes · Credits and thanks · Terms Of Service · iPhone/iPad APRS